KEWN/EWN METAR and TAF weather

Enter ICAO airport designator
Station Type Date Time Source
KEWN METAR 2020/01/20 15:54 UTC NOAA

KEWN 201554Z 35013KT 10SM CLR 02/M09 A3033 RMK AO2 SLP271 T00171089


Station Type Date Time Source
KEWN Decoded METAR 2020/01/20 15:54 UTC NOAA

New Bern, Craven County Regional Airport, NC, United States (KEWN) 35-04-03N 077-02-50W 3M
Jan 20, 2020 - 10:54 AM EST / 2020.01.20 1554 UTC
Wind: from the N (350 degrees) at 15 MPH (13 KT):0
Visibility: 10 mile(s):0
Sky conditions: clear
Temperature: 35.1 F (1.7 C)
Dew Point: 16.0 F (-8.9 C)
Relative Humidity: 45%
Pressure (altimeter): 30.33 in. Hg (1027 hPa)
ob: KEWN 201554Z 35013KT 10SM CLR 02/M09 A3033 RMK AO2 SLP271 T00171089
cycle: 16

Station Type Date Time Source
KEWN TAF 2020/01/20 12:22 UTC NOAA

TAF KEWN 201120Z 2012/2112 35008G16KT P6SM SKC
FM201900 36007KT P6SM SKC
FM210900 36008G15KT P6SM SKC

Example: see airport list